Time;durP1;ratioP1;P1;durP2;ratioP2;P2;SDS_P1;SDS_P2;PMS_P1;PMS_P2;Temp;Humidity;BMP_temperature;BMP_pressure;BME280_temperature;BME280_humidity;BME280_pressure;Samples;Min_cycle;Max_cycle;Signal;HPM_P1;HPM_P2
2024/01/21 00:02:14;;;;;;;8.60;4.22;;;1.20;99.90;;;;;;5095212;28;20053;-43
2024/01/21 00:04:40;;;;;;;11.52;3.22;;;1.30;99.90;;;;;;5095082;28;20024;-41
2024/01/21 00:07:06;;;;;;;9.10;3.90;;;1.30;99.90;;;;;;5095090;28;20031;-40
2024/01/21 00:09:31;;;;;;;9.90;4.30;;;1.40;99.90;;;;;;5095575;28;20480;-41
2024/01/21 00:11:57;;;;;;;9.80;3.72;;;1.40;99.90;;;;;;5094751;28;20541;-43
2024/01/21 00:14:23;;;;;;;10.20;3.92;;;1.40;99.90;;;;;;5094708;28;20494;-43
2024/01/21 00:16:48;;;;;;;7.40;3.38;;;1.40;99.90;;;;;;5093532;28;20107;-45
2024/01/21 00:19:14;;;;;;;11.93;3.60;;;1.50;99.90;;;;;;5095109;28;20020;-41
2024/01/21 00:21:40;;;;;;;6.25;3.22;;;1.50;99.90;;;;;;5094772;28;20016;-43
2024/01/21 00:24:05;;;;;;;8.00;3.70;;;1.50;99.90;;;;;;5094714;28;20066;-66
2024/01/21 00:26:31;;;;;;;8.73;3.45;;;1.50;99.90;;;;;;5095521;28;20432;-49
2024/01/21 00:29:00;;;;;;;6.85;3.20;;;1.50;99.90;;;;;;5094596;28;20495;-43
2024/01/21 00:31:27;;;;;;;5.85;2.63;;;1.60;99.90;;;;;;5094507;28;20028;-42
2024/01/21 00:33:53;;;;;;;7.03;3.33;;;1.60;99.90;;;;;;5093683;28;20028;-41
2024/01/21 00:36:18;;;;;;;7.97;3.05;;;1.60;99.90;;;;;;5094461;28;20149;-40
2024/01/21 00:38:44;;;;;;;7.53;2.97;;;1.70;99.90;;;;;;5093266;28;20020;-44
2024/01/21 00:41:14;;;;;;;5.80;3.25;;;1.70;99.90;;;;;;5100825;27;20019;-41
2024/01/21 00:43:40;;;;;;;6.00;2.92;;;1.70;99.90;;;;;;5122194;27;20379;-43
2024/01/21 00:46:06;;;;;;;8.82;2.90;;;1.60;99.90;;;;;;5093071;28;20032;-48
2024/01/21 00:48:33;;;;;;;7.18;3.17;;;1.60;99.90;;;;;;5094451;28;20535;-43
2024/01/21 00:50:59;;;;;;;5.28;2.97;;;1.60;99.90;;;;;;5092976;28;20414;-47
2024/01/21 00:53:25;;;;;;;5.57;2.75;;;1.60;99.90;;;;;;5094169;28;20023;-42
2024/01/21 00:55:50;;;;;;;3.55;2.60;;;1.60;99.90;;;;;;5094365;28;20028;-45
2024/01/21 00:58:16;;;;;;;3.65;2.13;;;1.60;99.90;;;;;;5094143;28;20058;-43
2024/01/21 01:00:41;;;;;;;6.43;2.80;;;1.60;99.90;;;;;;5094607;28;20012;-43
2024/01/21 01:03:07;;;;;;;6.95;2.80;;;1.70;99.90;;;;;;5092688;28;20103;-42
2024/01/21 01:05:33;;;;;;;4.82;3.20;;;1.60;99.90;;;;;;5093938;28;20063;-42
2024/01/21 01:07:58;;;;;;;5.35;2.75;;;1.70;99.90;;;;;;5093979;28;20058;-43
2024/01/21 01:10:24;;;;;;;6.28;2.88;;;1.70;99.90;;;;;;5093820;28;20042;-44
2024/01/21 01:12:49;;;;;;;6.55;3.05;;;1.70;99.90;;;;;;5093631;28;20416;-41
2024/01/21 01:15:15;;;;;;;5.25;2.25;;;1.70;99.90;;;;;;5093724;28;20039;-41
2024/01/21 01:17:41;;;;;;;7.57;2.80;;;1.60;99.90;;;;;;5094265;28;20024;-41
2024/01/21 01:20:07;;;;;;;5.88;2.10;;;1.70;99.90;;;;;;5093690;28;20078;-47
2024/01/21 01:22:33;;;;;;;7.45;2.53;;;1.70;99.90;;;;;;5096417;28;20031;-43
2024/01/21 01:24:59;;;;;;;4.10;2.35;;;1.80;99.90;;;;;;5110420;28;20020;-42
2024/01/21 01:27:26;;;;;;;3.75;2.33;;;1.80;99.90;;;;;;5110334;28;20411;-60
2024/01/21 01:29:52;;;;;;;5.50;2.47;;;1.70;99.90;;;;;;5104372;28;20023;-48
2024/01/21 01:32:19;;;;;;;3.95;2.33;;;1.60;99.90;;;;;;5113855;28;20057;-40
2024/01/21 01:34:44;;;;;;;4.15;2.38;;;1.60;99.90;;;;;;5106263;28;20039;-40
2024/01/21 01:37:11;;;;;;;5.22;2.63;;;1.60;99.90;;;;;;5093406;28;20016;-56
2024/01/21 01:39:37;;;;;;;5.38;2.33;;;1.50;99.90;;;;;;5105663;28;20417;-56
2024/01/21 01:42:03;;;;;;;2.60;2.05;;;1.40;99.90;;;;;;5093360;28;20054;-50
2024/01/21 01:44:29;;;;;;;3.75;1.83;;;1.40;99.90;;;;;;5093353;28;20099;-51
2024/01/21 01:46:55;;;;;;;3.65;1.92;;;1.40;99.90;;;;;;5093302;28;20024;-51
2024/01/21 01:49:21;;;;;;;6.57;2.17;;;1.40;99.90;;;;;;5093132;28;20028;-53
2024/01/21 01:51:47;;;;;;;4.32;2.13;;;1.40;99.90;;;;;;5093209;28;20490;-53
2024/01/21 01:54:15;;;;;;;2.80;1.95;;;1.30;99.90;;;;;;5093271;28;20028;-54
2024/01/21 01:56:40;;;;;;;;;;;1.30;99.90;;;;;;5093985;28;20028;-50
2024/01/21 01:59:10;;;;;;;6.32;2.03;;;1.40;99.90;;;;;;5093264;28;20276;-51
2024/01/21 02:01:38;;;;;;;2.83;1.55;;;1.40;99.90;;;;;;5092991;28;20388;-53
2024/01/21 02:04:06;;;;;;;3.88;2.22;;;1.50;99.90;;;;;;5092373;28;20103;-54
2024/01/21 02:06:32;;;;;;;3.35;2.08;;;1.50;99.90;;;;;;5092367;28;20388;-53
2024/01/21 02:08:58;;;;;;;4.72;1.58;;;1.60;99.90;;;;;;5092845;28;20081;-45
2024/01/21 02:11:24;;;;;;;2.50;2.05;;;1.60;99.90;;;;;;5092987;28;20021;-52
2024/01/21 02:13:49;;;;;;;2.95;1.88;;;1.60;99.90;;;;;;5093379;28;20106;-51
2024/01/21 02:16:16;;;;;;;3.00;1.85;;;1.60;99.90;;;;;;5092706;28;20035;-56
2024/01/21 02:18:46;;;;;;;4.55;1.90;;;1.60;99.90;;;;;;5092733;28;20012;-51
2024/01/21 02:21:12;;;;;;;3.53;1.73;;;1.60;99.90;;;;;;5092956;28;20028;-69
2024/01/21 02:23:38;;;;;;;4.82;1.83;;;1.50;99.90;;;;;;5093058;28;20525;-61
2024/01/21 02:26:04;;;;;;;5.55;1.98;;;1.50;99.90;;;;;;5092774;28;20099;-52
2024/01/21 02:28:29;;;;;;;3.03;1.88;;;1.60;99.90;;;;;;5092761;28;20031;-49
2024/01/21 02:30:55;;;;;;;3.58;1.52;;;1.60;99.90;;;;;;5094465;28;20584;-51
2024/01/21 02:33:21;;;;;;;7.32;2.88;;;1.60;99.90;;;;;;5093041;28;20085;-53
2024/01/21 02:35:47;;;;;;;4.07;1.63;;;1.70;99.90;;;;;;5091363;28;20107;-54
2024/01/21 02:38:12;;;;;;;3.83;1.50;;;1.70;99.90;;;;;;5094080;28;20020;-49
2024/01/21 02:40:39;;;;;;;6.38;1.60;;;1.60;99.90;;;;;;5096793;28;20103;-51
2024/01/21 02:43:06;;;;;;;3.58;1.80;;;1.70;99.90;;;;;;5096787;28;20051;-51
2024/01/21 02:45:33;;;;;;;3.65;1.73;;;1.70;99.90;;;;;;5095789;28;20400;-54
2024/01/21 02:47:58;;;;;;;1.83;1.20;;;1.60;99.90;;;;;;5097442;28;20028;-50
2024/01/21 02:50:24;;;;;;;3.58;1.50;;;1.70;99.90;;;;;;5096661;28;20038;-53
2024/01/21 02:52:50;;;;;;;4.50;1.63;;;1.60;99.90;;;;;;5096518;28;20073;-50
2024/01/21 02:55:15;;;;;;;3.85;1.90;;;1.60;99.90;;;;;;5096483;28;20398;-50
2024/01/21 02:57:41;;;;;;;2.88;1.52;;;1.60;99.90;;;;;;5096500;28;20384;-49
2024/01/21 03:00:07;;;;;;;8.52;2.05;;;1.60;99.90;;;;;;5096462;28;20502;-52
2024/01/21 03:02:33;;;;;;;2.38;1.30;;;1.60;99.90;;;;;;5096635;28;20073;-53
2024/01/21 03:04:59;;;;;;;2.33;1.42;;;1.60;99.90;;;;;;5096910;28;20479;-49
2024/01/21 03:07:24;;;;;;;6.78;1.83;;;1.70;99.90;;;;;;5096138;28;20095;-50
2024/01/21 03:09:50;;;;;;;2.63;1.40;;;1.60;99.90;;;;;;5096239;28;20016;-51
2024/01/21 03:12:16;;;;;;;3.47;1.83;;;1.60;99.90;;;;;;5095978;28;20083;-52
2024/01/21 03:14:41;;;;;;;3.55;1.70;;;1.60;99.90;;;;;;5105697;28;20024;-48
2024/01/21 03:17:08;;;;;;;9.70;1.60;;;1.60;99.90;;;;;;5128232;27;20019;-41
2024/01/21 03:19:33;;;;;;;3.50;1.60;;;1.60;99.90;;;;;;5120121;27;20063;-53
2024/01/21 03:21:59;;;;;;;2.80;1.88;;;1.60;99.90;;;;;;5115573;28;20031;-49
2024/01/21 03:24:25;;;;;;;4.85;1.90;;;1.60;99.90;;;;;;5115084;28;20065;-49
2024/01/21 03:26:50;;;;;;;2.97;1.90;;;1.50;99.90;;;;;;5116338;28;20038;-51
2024/01/21 03:29:16;;;;;;;5.82;1.70;;;1.60;99.90;;;;;;5110268;28;20069;-52
2024/01/21 03:31:42;;;;;;;4.95;2.28;;;1.60;99.90;;;;;;5096085;28;20031;-51
2024/01/21 03:34:07;;;;;;;3.00;1.40;;;1.60;99.90;;;;;;5095800;28;20055;-52
2024/01/21 03:36:33;;;;;;;4.25;1.40;;;1.70;99.90;;;;;;5095653;28;20421;-51
2024/01/21 03:38:59;;;;;;;6.05;1.73;;;1.70;99.90;;;;;;5094945;28;20026;-51
2024/01/21 03:41:24;;;;;;;2.85;1.25;;;1.80;99.90;;;;;;5094352;28;20495;-54
2024/01/21 03:43:50;;;;;;;3.63;2.35;;;1.80;99.90;;;;;;5095581;28;20480;-50
2024/01/21 03:46:16;;;;;;;2.13;1.33;;;1.80;99.90;;;;;;5095490;28;20035;-54
2024/01/21 03:48:42;;;;;;;4.03;1.55;;;1.80;99.90;;;;;;5095403;28;20031;-50
2024/01/21 03:51:11;;;;;;;5.00;2.15;;;1.70;99.90;;;;;;5094749;28;20039;-52
2024/01/21 03:53:39;;;;;;;2.53;1.80;;;1.60;99.90;;;;;;5095667;28;20529;-52
2024/01/21 03:56:09;;;;;;;2.55;1.60;;;1.70;99.90;;;;;;5096116;28;20464;-51
2024/01/21 03:58:35;;;;;;;3.28;1.70;;;1.70;99.90;;;;;;5095320;28;20408;-50
2024/01/21 04:01:04;;;;;;;2.97;1.88;;;1.70;99.90;;;;;;5095332;28;20058;-49
2024/01/21 04:03:29;;;;;;;3.75;2.13;;;1.60;99.90;;;;;;5095462;28;20070;-53
2024/01/21 04:05:55;;;;;;;4.10;2.10;;;1.70;99.90;;;;;;5095451;28;20375;-47
2024/01/21 04:08:21;;;;;;;5.22;2.15;;;1.70;99.90;;;;;;5095371;28;20020;-53
2024/01/21 04:10:47;;;;;;;4.20;2.10;;;1.60;99.90;;;;;;5095293;28;20384;-52
2024/01/21 04:13:13;;;;;;;3.13;1.52;;;1.60;99.90;;;;;;5094997;28;20044;-52
2024/01/21 04:15:38;;;;;;;3.40;1.73;;;1.60;99.90;;;;;;5094775;28;20458;-51
2024/01/21 04:18:04;;;;;;;5.82;2.00;;;1.60;99.90;;;;;;5094825;28;20053;-67
2024/01/21 04:20:30;;;;;;;3.42;1.60;;;1.70;99.90;;;;;;5094884;28;20055;-43
2024/01/21 04:22:55;;;;;;;3.90;2.25;;;1.70;99.90;;;;;;5094761;28;20089;-40
2024/01/21 04:25:21;;;;;;;9.27;2.42;;;1.80;99.90;;;;;;5094794;28;20024;-42
2024/01/21 04:27:47;;;;;;;3.38;1.90;;;1.70;99.90;;;;;;5094797;28;20102;-42
2024/01/21 04:30:12;;;;;;;4.30;2.30;;;1.80;99.90;;;;;;5095172;28;20424;-43
2024/01/21 04:32:38;;;;;;;6.60;2.33;;;1.80;99.90;;;;;;5094639;28;20020;-66
2024/01/21 04:35:06;;;;;;;5.13;2.20;;;1.80;99.90;;;;;;5094524;28;20035;-42
2024/01/21 04:37:31;;;;;;;3.50;2.05;;;1.80;99.90;;;;;;5094555;28;20077;-40
2024/01/21 04:39:57;;;;;;;3.50;1.58;;;1.90;99.90;;;;;;5094453;28;20426;-42
2024/01/21 04:42:23;;;;;;;2.15;1.48;;;1.90;99.90;;;;;;5094534;28;20066;-39
2024/01/21 04:44:48;;;;;;;3.78;2.20;;;1.80;99.90;;;;;;5094653;28;20388;-45
2024/01/21 04:47:14;;;;;;;4.03;1.95;;;1.90;99.90;;;;;;5094514;28;20027;-42
2024/01/21 04:49:39;;;;;;;4.45;1.80;;;1.90;99.90;;;;;;5094259;28;20028;-41
2024/01/21 04:52:05;;;;;;;4.68;1.92;;;1.90;99.90;;;;;;5094533;28;20492;-41
2024/01/21 04:54:31;;;;;;;5.00;2.05;;;1.90;99.90;;;;;;5094396;28;20012;-45
2024/01/21 04:56:57;;;;;;;3.65;1.77;;;2.00;99.90;;;;;;5094069;28;20020;-48
2024/01/21 04:59:22;;;;;;;4.20;2.10;;;2.00;99.90;;;;;;5094029;28;20020;-53
2024/01/21 05:01:49;;;;;;;5.32;2.35;;;2.00;99.90;;;;;;5093226;28;20019;-50
2024/01/21 05:04:14;;;;;;;5.68;2.17;;;2.00;99.90;;;;;;5093767;28;20091;-42
2024/01/21 05:06:40;;;;;;;4.20;2.05;;;2.00;99.90;;;;;;5093623;28;20023;-45
2024/01/21 05:09:05;;;;;;;7.95;2.85;;;2.10;99.90;;;;;;5093933;28;20032;-47
2024/01/21 05:11:31;;;;;;;6.03;2.75;;;2.10;99.90;;;;;;5111526;28;20072;-41
2024/01/21 05:13:57;;;;;;;4.50;1.92;;;2.20;99.90;;;;;;5115765;27;20043;-40
2024/01/21 05:16:22;;;;;;;6.15;2.70;;;2.20;99.90;;;;;;5130988;27;20027;-42
2024/01/21 05:18:48;;;;;;;4.32;2.35;;;2.20;99.90;;;;;;5103751;28;20019;-42
2024/01/21 05:21:21;;;;;;;7.47;2.25;;;2.20;99.90;;;;;;5114071;28;20098;-42
2024/01/21 05:23:51;;;;;;;4.53;1.88;;;2.30;99.90;;;;;;5114370;28;20491;-53
2024/01/21 05:26:17;;;;;;;5.88;3.10;;;2.30;99.90;;;;;;5114043;28;20024;-51
2024/01/21 05:28:43;;;;;;;6.07;3.15;;;2.30;99.90;;;;;;5113977;28;20023;-53
2024/01/21 05:31:09;;;;;;;5.03;2.40;;;2.30;99.90;;;;;;5114186;28;20015;-51
2024/01/21 05:33:34;;;;;;;5.00;2.53;;;2.30;99.90;;;;;;5113886;28;20475;-57
2024/01/21 05:36:00;;;;;;;6.78;2.60;;;2.30;99.90;;;;;;5112867;28;20518;-54
2024/01/21 05:38:26;;;;;;;5.57;2.88;;;2.30;99.90;;;;;;5114005;28;20054;-52
2024/01/21 05:40:52;;;;;;;3.45;2.33;;;2.20;99.90;;;;;;5113714;28;20049;-53
2024/01/21 05:43:17;;;;;;;4.45;2.50;;;2.20;99.90;;;;;;5113968;28;20085;-54
2024/01/21 05:45:44;;;;;;;7.65;3.13;;;2.20;99.90;;;;;;5113686;28;20031;-55
2024/01/21 05:48:10;;;;;;;3.67;2.38;;;2.20;99.90;;;;;;5113477;28;20027;-52
2024/01/21 05:50:36;;;;;;;5.35;2.53;;;2.20;99.90;;;;;;5113785;28;20353;-52
2024/01/21 05:53:05;;;;;;;7.53;2.78;;;2.10;99.90;;;;;;5112926;28;20437;-52
2024/01/21 05:55:33;;;;;;;3.75;2.08;;;2.10;99.90;;;;;;5113493;28;20026;-51
2024/01/21 05:57:59;;;;;;;6.43;3.15;;;2.20;99.90;;;;;;5113809;28;20059;-51
2024/01/21 06:00:25;;;;;;;4.28;2.25;;;2.20;99.90;;;;;;5112165;28;20040;-51
2024/01/21 06:02:51;;;;;;;6.28;2.78;;;2.30;99.90;;;;;;5113373;28;20027;-52
2024/01/21 06:05:17;;;;;;;8.77;3.38;;;2.20;99.90;;;;;;5113367;28;20504;-50
2024/01/21 06:07:43;;;;;;;3.92;2.08;;;2.30;99.90;;;;;;5113271;28;20031;-50
2024/01/21 06:10:09;;;;;;;5.30;2.53;;;2.30;99.90;;;;;;5095996;28;20050;-51
2024/01/21 06:12:36;;;;;;;8.38;3.47;;;2.30;99.90;;;;;;5112845;28;20556;-55
2024/01/21 06:15:01;;;;;;;7.75;3.08;;;2.30;99.90;;;;;;5112010;28;20089;-53
2024/01/21 06:17:27;;;;;;;5.35;2.78;;;2.30;99.90;;;;;;5100304;28;20052;-55
2024/01/21 06:19:52;;;;;;;6.32;2.92;;;2.30;99.90;;;;;;5092908;28;20024;-54
2024/01/21 06:22:18;;;;;;;4.22;1.98;;;2.30;99.90;;;;;;5093103;28;20095;-54
2024/01/21 06:24:44;;;;;;;5.05;2.25;;;2.30;99.90;;;;;;5091536;28;20024;-55
2024/01/21 06:27:09;;;;;;;3.95;2.13;;;2.40;99.90;;;;;;5093330;28;20117;-52
2024/01/21 06:29:35;;;;;;;7.70;2.53;;;2.40;99.90;;;;;;5092977;28;20073;-53
2024/01/21 06:32:01;;;;;;;6.60;3.08;;;2.40;99.90;;;;;;5092764;28;20012;-53
2024/01/21 06:34:26;;;;;;;7.55;3.05;;;2.40;99.90;;;;;;5092832;28;20341;-53
2024/01/21 06:36:52;;;;;;;5.35;2.60;;;2.40;99.90;;;;;;5092684;28;20034;-54
2024/01/21 06:39:17;;;;;;;9.55;3.25;;;2.50;99.90;;;;;;5092678;28;20368;-52
2024/01/21 06:41:43;;;;;;;5.53;2.80;;;2.50;99.90;;;;;;5092675;28;20024;-53
2024/01/21 06:44:09;;;;;;;14.15;2.65;;;2.50;99.90;;;;;;5093137;28;20085;-50
2024/01/21 06:46:34;;;;;;;6.75;3.28;;;2.50;99.90;;;;;;5091298;28;20361;-53
2024/01/21 06:49:00;;;;;;;5.50;2.63;;;2.50;99.90;;;;;;5092550;28;20024;-68
2024/01/21 06:51:34;;;;;;;4.85;2.50;;;2.50;99.90;;;;;;5092516;28;20531;-52
2024/01/21 06:54:00;;;;;;;6.28;2.90;;;2.50;99.90;;;;;;5092851;28;20021;-52
2024/01/21 06:56:26;;;;;;;7.28;2.88;;;2.50;99.90;;;;;;5092393;28;20369;-58
2024/01/21 06:58:52;;;;;;;7.07;2.63;;;2.40;99.90;;;;;;5092500;28;20035;-49
2024/01/21 07:01:18;;;;;;;8.00;3.40;;;2.40;99.90;;;;;;5091738;28;20494;-53
2024/01/21 07:03:45;;;;;;;7.50;2.25;;;2.40;99.90;;;;;;5092439;28;20024;-53
2024/01/21 07:06:11;;;;;;;4.22;2.35;;;2.40;99.90;;;;;;5097114;28;20561;-53
2024/01/21 07:08:38;;;;;;;6.15;3.08;;;2.40;99.90;;;;;;5112748;28;20048;-56
2024/01/21 07:11:08;;;;;;;4.70;2.42;;;2.40;99.90;;;;;;5128044;28;20019;-53
2024/01/21 07:13:33;;;;;;;4.88;2.60;;;2.40;99.90;;;;;;5111838;28;20055;-54
2024/01/21 07:15:59;;;;;;;7.65;2.38;;;2.40;99.90;;;;;;5111941;28;20391;-68
2024/01/21 07:18:25;;;;;;;5.07;3.30;;;2.40;99.90;;;;;;5092886;28;20441;-52
2024/01/21 07:20:51;;;;;;;5.68;2.97;;;2.40;99.90;;;;;;5092257;28;20427;-55
2024/01/21 07:23:16;;;;;;;8.45;2.90;;;2.40;99.90;;;;;;5092281;28;20137;-52
2024/01/21 07:25:42;;;;;;;7.07;2.72;;;2.40;99.90;;;;;;5094252;28;20050;-51
2024/01/21 07:28:08;;;;;;;5.22;2.83;;;2.40;99.90;;;;;;5095858;28;20388;-52
2024/01/21 07:30:34;;;;;;;8.38;2.95;;;2.50;99.90;;;;;;5095852;28;20035;-54
2024/01/21 07:32:59;;;;;;;5.22;2.63;;;2.50;99.90;;;;;;5095770;28;20020;-52
2024/01/21 07:35:25;;;;;;;6.15;2.90;;;2.60;99.90;;;;;;5096236;28;20388;-51
2024/01/21 07:37:50;;;;;;;7.03;2.80;;;2.60;99.90;;;;;;5095713;28;20429;-52
2024/01/21 07:40:16;;;;;;;9.75;2.28;;;2.60;99.90;;;;;;5095886;28;20015;-52
2024/01/21 07:42:42;;;;;;;5.38;2.83;;;2.70;99.90;;;;;;5095662;28;20146;-52
2024/01/21 07:45:08;;;;;;;11.40;3.25;;;2.80;99.90;;;;;;5095644;28;20027;-41
2024/01/21 07:47:34;;;;;;;4.65;2.50;;;2.80;99.90;;;;;;5095536;28;20021;-49
2024/01/21 07:49:59;;;;;;;5.57;2.83;;;2.80;99.90;;;;;;5095504;28;20031;-42
2024/01/21 07:52:25;;;;;;;13.52;3.08;;;2.80;99.90;;;;;;5095997;28;20416;-38
2024/01/21 07:54:50;;;;;;;7.20;3.00;;;2.80;99.90;;;;;;5095370;28;20380;-42
2024/01/21 07:57:16;;;;;;;5.30;3.00;;;2.80;99.90;;;;;;5095346;28;20099;-40
2024/01/21 07:59:42;;;;;;;4.97;2.92;;;2.80;99.90;;;;;;5094025;28;20020;-42
2024/01/21 08:02:08;;;;;;;7.15;2.92;;;2.90;99.90;;;;;;5095268;28;20054;-41
2024/01/21 08:04:34;;;;;;;9.02;2.80;;;2.90;99.90;;;;;;5096796;28;20021;-44
2024/01/21 08:07:00;;;;;;;5.55;3.40;;;3.00;99.90;;;;;;5104282;28;20047;-40
2024/01/21 08:09:27;;;;;;;4.20;2.42;;;3.00;99.90;;;;;;5095685;28;20024;-40
2024/01/21 08:11:53;;;;;;;8.10;2.60;;;3.00;99.90;;;;;;5100448;28;20479;-75
2024/01/21 08:14:18;;;;;;;3.95;2.53;;;3.00;99.90;;;;;;5115356;28;20072;-43
2024/01/21 08:16:44;;;;;;;5.75;3.10;;;3.00;99.90;;;;;;5115564;28;20068;-39
2024/01/21 08:19:10;;;;;;;5.65;2.38;;;3.00;99.90;;;;;;5115314;28;20024;-53
2024/01/21 08:21:35;;;;;;;6.45;3.45;;;3.10;99.90;;;;;;5115270;28;20027;-48
2024/01/21 08:24:02;;;;;;;4.53;2.83;;;3.20;99.90;;;;;;5114025;28;20383;-42
2024/01/21 08:26:28;;;;;;;9.13;2.95;;;3.20;99.90;;;;;;5109409;28;20024;-41
2024/01/21 08:28:53;;;;;;;4.45;2.55;;;3.20;99.90;;;;;;5094689;28;20031;-43
2024/01/21 08:31:19;;;;;;;5.20;2.78;;;3.20;99.90;;;;;;5094681;28;20024;-44
2024/01/21 08:33:45;;;;;;;8.20;3.17;;;3.30;99.90;;;;;;5094630;28;20028;-39
2024/01/21 08:36:11;;;;;;;7.05;3.17;;;3.30;99.90;;;;;;5094272;28;20435;-44
2024/01/21 08:38:37;;;;;;;4.60;3.03;;;3.30;99.90;;;;;;5094436;28;20055;-40
2024/01/21 08:41:03;;;;;;;9.70;2.97;;;3.30;99.90;;;;;;5095118;28;20020;-41
2024/01/21 08:43:28;;;;;;;6.10;3.15;;;3.40;99.90;;;;;;5094958;28;20031;-41
2024/01/21 08:45:54;;;;;;;5.63;2.60;;;3.40;99.90;;;;;;5094472;28;20027;-40
2024/01/21 08:48:19;;;;;;;4.75;2.58;;;3.40;99.90;;;;;;5094267;28;20024;-43
2024/01/21 08:50:45;;;;;;;5.43;2.95;;;3.40;99.90;;;;;;5094580;28;20054;-40
2024/01/21 08:53:11;;;;;;;9.18;3.22;;;3.40;99.90;;;;;;5094529;28;20027;-40
2024/01/21 08:55:36;;;;;;;10.40;2.97;;;3.50;99.90;;;;;;5092885;28;20037;-39
2024/01/21 08:58:02;;;;;;;5.45;3.58;;;3.50;99.90;;;;;;5094184;28;20464;-41
2024/01/21 09:00:28;;;;;;;4.65;2.33;;;3.50;99.90;;;;;;5099949;28;20023;-42
2024/01/21 09:02:54;;;;;;;6.50;3.33;;;3.50;99.90;;;;;;5113353;28;20035;-66
2024/01/21 09:05:19;;;;;;;5.53;3.10;;;3.50;99.90;;;;;;5094042;28;20365;-44
2024/01/21 09:07:45;;;;;;;8.00;2.78;;;3.60;99.90;;;;;;5129828;27;20031;-57
2024/01/21 09:10:12;;;;;;;12.45;3.10;;;3.60;99.90;;;;;;5118755;27;20024;-44
2024/01/21 09:12:38;;;;;;;4.17;2.40;;;3.60;99.90;;;;;;5102125;28;20052;-46
2024/01/21 09:15:07;;;;;;;6.32;2.88;;;3.70;99.90;;;;;;5093863;28;20035;-44
2024/01/21 09:17:33;;;;;;;3.95;2.45;;;3.70;99.90;;;;;;5094597;28;20532;-43
2024/01/21 09:19:59;;;;;;;7.10;2.78;;;3.70;99.90;;;;;;5092429;28;20091;-43
2024/01/21 09:22:24;;;;;;;9.20;3.20;;;3.80;99.90;;;;;;5093740;28;20377;-43
2024/01/21 09:24:50;;;;;;;9.30;3.17;;;3.80;99.90;;;;;;5093686;28;20103;-43
2024/01/21 09:27:16;;;;;;;5.25;2.72;;;3.80;99.90;;;;;;5093710;28;20028;-42
2024/01/21 09:29:42;;;;;;;6.00;3.40;;;3.80;99.90;;;;;;5093589;28;20020;-44
2024/01/21 09:32:10;;;;;;;9.38;3.35;;;3.80;99.90;;;;;;5093516;28;20020;-43
2024/01/21 09:34:39;;;;;;;6.00;3.05;;;3.80;99.90;;;;;;5094072;28;20019;-44
2024/01/21 09:37:07;;;;;;;6.57;3.42;;;3.90;99.90;;;;;;5093374;28;20024;-49
2024/01/21 09:39:33;;;;;;;4.70;2.92;;;3.90;99.90;;;;;;5093428;28;20165;-43
2024/01/21 09:41:59;;;;;;;7.20;3.50;;;3.80;99.90;;;;;;5092110;28;20051;-43
2024/01/21 09:44:28;;;;;;;3.78;2.75;;;3.90;99.90;;;;;;5093395;28;20020;-43
2024/01/21 09:46:57;;;;;;;4.35;2.95;;;3.90;99.90;;;;;;5093162;28;20020;-43
2024/01/21 09:49:24;;;;;;;4.65;2.95;;;3.90;99.90;;;;;;5091583;28;20472;-43
2024/01/21 09:51:50;;;;;;;9.95;3.63;;;4.00;99.90;;;;;;5093768;28;20056;-62
2024/01/21 09:54:17;;;;;;;10.15;2.67;;;4.10;99.90;;;;;;5093189;28;20048;-45
2024/01/21 09:56:43;;;;;;;7.93;3.55;;;4.10;99.90;;;;;;5091805;28;20032;-45
2024/01/21 09:59:10;;;;;;;8.75;3.38;;;4.10;99.90;;;;;;5093113;28;20081;-41
2024/01/21 10:01:40;;;;;;;3.50;2.78;;;4.10;99.90;;;;;;5101613;28;20031;-45
2024/01/21 10:04:10;;;;;;;6.53;3.35;;;4.10;99.90;;;;;;5100973;28;20047;-45
2024/01/21 10:06:36;;;;;;;7.80;3.58;;;4.10;99.90;;;;;;5092914;28;20028;-47
2024/01/21 10:09:12;;;;;;;6.20;2.63;;;4.00;99.90;;;;;;5096696;28;20089;-48
2024/01/21 10:11:38;;;;;;;10.18;3.75;;;4.10;99.90;;;;;;5092905;28;20023;-47
2024/01/21 10:14:03;;;;;;;8.77;2.83;;;4.10;99.90;;;;;;5092830;28;20131;-43
2024/01/21 10:16:29;;;;;;;7.05;3.67;;;4.10;99.90;;;;;;5103010;28;20027;-46
2024/01/21 10:18:54;;;;;;;6.10;3.40;;;4.20;99.90;;;;;;5113270;28;20015;-51
2024/01/21 10:21:20;;;;;;;8.30;3.45;;;4.30;99.90;;;;;;5111449;28;20028;-43
2024/01/21 10:23:47;;;;;;;7.28;3.83;;;4.30;99.90;;;;;;5107178;28;20352;-42
2024/01/21 10:26:12;;;;;;;9.48;3.22;;;4.30;99.90;;;;;;5092591;28;20032;-43
2024/01/21 10:28:40;;;;;;;4.80;3.33;;;4.30;99.90;;;;;;5092713;28;20491;-44
2024/01/21 10:31:08;;;;;;;6.50;3.47;;;4.30;99.90;;;;;;5092615;28;20032;-39
2024/01/21 10:33:34;;;;;;;6.43;3.22;;;4.30;99.90;;;;;;5092696;28;20031;-45
2024/01/21 10:36:01;;;;;;;7.80;3.75;;;4.30;99.90;;;;;;5092584;28;20111;-44
2024/01/21 10:38:45;;;;;;;8.45;3.00;;;4.40;99.90;;;;;;5092687;28;20472;-44
2024/01/21 10:41:12;;;;;;;6.57;3.33;;;4.50;99.90;;;;;;5092639;28;20034;-43
2024/01/21 10:43:40;;;;;;;6.57;3.03;;;4.40;99.90;;;;;;5092610;28;20560;-48
2024/01/21 10:46:07;;;;;;;4.90;3.55;;;4.50;99.90;;;;;;5092539;28;20036;-43
2024/01/21 10:48:33;;;;;;;7.38;3.78;;;4.60;99.90;;;;;;5093047;28;20472;-52
2024/01/21 10:51:00;;;;;;;6.85;3.22;;;4.60;99.90;;;;;;5104021;28;20030;-48
2024/01/21 10:53:28;;;;;;;6.35;3.25;;;4.60;99.90;;;;;;5092613;28;20040;-44
2024/01/21 10:55:54;;;;;;;7.45;3.55;;;4.60;99.90;;;;;;5104700;28;20059;-44
2024/01/21 10:58:20;;;;;;;10.75;3.88;;;4.60;99.90;;;;;;5112826;28;20115;-43
2024/01/21 11:00:46;;;;;;;7.75;3.55;;;4.70;99.90;;;;;;5114203;28;20456;-45
2024/01/21 11:03:25;;;;;;;4.88;3.08;;;4.80;99.90;;;;;;5117087;28;20036;-45
2024/01/21 11:05:59;;;;;;;6.70;3.42;;;4.80;99.90;;;;;;5112830;28;20438;-45
2024/01/21 11:08:26;;;;;;;8.38;3.20;;;4.80;99.90;;;;;;5110463;28;20051;-47
2024/01/21 11:11:14;;;;;;;10.63;5.00;;;4.80;99.90;;;;;;5096247;28;20480;-44
2024/01/21 11:13:47;;;;;;;7.93;3.45;;;4.80;99.90;;;;;;5096114;28;20063;-44
2024/01/21 11:16:31;;;;;;;7.68;4.32;;;4.70;99.90;;;;;;5099396;28;20545;-57
2024/01/21 11:19:06;;;;;;;6.00;3.65;;;4.80;99.90;;;;;;5116490;28;20019;-55
2024/01/21 11:21:33;;;;;;;7.53;3.75;;;4.80;99.90;;;;;;5116356;28;20027;-55
2024/01/21 11:24:06;;;;;;;6.07;3.25;;;4.80;99.90;;;;;;5116109;27;20024;-55
2024/01/21 11:26:35;;;;;;;6.47;3.38;;;4.90;99.90;;;;;;5113351;28;20484;-56
2024/01/21 11:29:02;;;;;;;9.85;3.17;;;4.90;99.90;;;;;;5103894;28;20031;-55
2024/01/21 11:31:32;;;;;;;9.98;3.60;;;5.00;99.90;;;;;;5114984;28;20487;-57
2024/01/21 11:34:17;;;;;;;7.57;3.80;;;5.00;99.90;;;;;;5104949;28;20059;-57
2024/01/21 11:36:46;;;;;;;8.77;3.58;;;5.10;99.90;;;;;;5095922;28;20469;-57
2024/01/21 11:39:12;;;;;;;7.22;3.72;;;5.10;99.90;;;;;;5095674;28;20431;-58
2024/01/21 11:41:41;;;;;;;6.68;3.80;;;5.20;99.90;;;;;;5095623;28;20028;-55
2024/01/21 11:44:23;;;;;;;9.13;3.33;;;5.20;99.90;;;;;;5094276;28;20027;-57
2024/01/21 11:46:49;;;;;;;7.40;3.65;;;5.20;99.90;;;;;;5113110;28;20034;-57
2024/01/21 11:49:15;;;;;;;9.30;3.65;;;5.20;99.90;;;;;;5115799;28;20027;-56
2024/01/21 11:51:42;;;;;;;11.52;3.85;;;5.20;99.90;;;;;;5115002;28;20024;-54
2024/01/21 11:54:08;;;;;;;9.50;3.72;;;5.20;99.90;;;;;;5114488;28;20031;-58
2024/01/21 11:56:37;;;;;;;9.32;3.35;;;5.30;99.90;;;;;;5115737;28;20031;-56
2024/01/21 11:59:08;;;;;;;6.13;3.38;;;5.30;99.90;;;;;;5115985;28;20031;-57
2024/01/21 12:01:36;;;;;;;9.23;4.50;;;5.20;99.90;;;;;;5114392;28;20113;-54
2024/01/21 12:04:06;;;;;;;7.20;4.28;;;5.20;99.90;;;;;;5115736;28;20577;-57
2024/01/21 12:06:34;;;;;;;10.20;4.45;;;5.20;99.90;;;;;;5105687;28;20024;-56
2024/01/21 12:09:01;;;;;;;6.15;3.50;;;5.30;99.90;;;;;;5096006;28;20126;-58
2024/01/21 12:11:26;;;;;;;6.78;3.22;;;5.30;99.90;;;;;;5094757;28;20107;-56
2024/01/21 12:13:52;;;;;;;8.60;3.92;;;5.30;99.90;;;;;;5094911;28;20083;-56
2024/01/21 12:16:18;;;;;;;5.25;3.15;;;5.30;99.90;;;;;;5094958;28;20056;-55
2024/01/21 12:18:45;;;;;;;8.02;3.20;;;5.40;99.90;;;;;;5095029;28;20024;-58
2024/01/21 12:21:14;;;;;;;7.47;3.67;;;5.50;99.90;;;;;;5095199;28;20514;-63
2024/01/21 12:23:50;;;;;;;8.45;4.07;;;5.40;99.90;;;;;;5115292;28;20541;-56
2024/01/21 12:26:20;;;;;;;7.57;3.88;;;5.40;99.90;;;;;;5115420;28;20055;-59
2024/01/21 12:29:02;;;;;;;9.02;4.35;;;5.50;99.90;;;;;;5115038;27;20114;-58
2024/01/21 12:31:36;;;;;;;7.45;4.40;;;5.50;99.90;;;;;;5115479;27;20560;-57
2024/01/21 12:34:03;;;;;;;9.63;4.10;;;5.50;99.90;;;;;;5115419;28;20097;-56
2024/01/21 12:36:33;;;;;;;9.32;3.72;;;5.60;99.90;;;;;;5114971;28;20062;-58
2024/01/21 12:39:00;;;;;;;5.95;3.70;;;5.50;99.90;;;;;;5114981;28;20487;-58
2024/01/21 12:41:25;;;;;;;7.07;4.22;;;5.60;99.90;;;;;;5112844;28;20506;-56
2024/01/21 12:43:51;;;;;;;9.05;3.85;;;5.70;99.90;;;;;;5114777;28;20019;-55
2024/01/21 12:46:20;;;;;;;7.05;4.05;;;5.80;99.90;;;;;;5114794;28;20028;-57
2024/01/21 12:48:47;;;;;;;6.93;3.42;;;5.80;99.90;;;;;;5113452;28;20471;-65
2024/01/21 12:51:19;;;;;;;8.60;3.88;;;5.70;99.90;;;;;;5114689;28;20480;-58
2024/01/21 12:53:52;;;;;;;9.05;4.43;;;5.70;99.90;;;;;;5114736;28;20110;-56
2024/01/21 12:56:18;;;;;;;5.63;3.42;;;5.70;99.90;;;;;;5114533;28;20039;-57